Lee Center, New York
Current Conditions -  °F | °C
As of 2:37 PM on Thursday 18 Dec 2014 (Local Time) from KRME Reporting Station
Light Snow Light Snow  
Wind Chill: 21°   Ceiling: 1100
Heat Index: 30°   Visibility: 1mi
Dew Point: 29°   Wind: 12mph
Humidity: 96%   Direction: 290°WNW
Pressure: 29.98"   Gusts: NA
Location:  43.3°N, 75.52°W
Report Text: KRME 181937Z 29010KT 1SM -SN BR OVC011 M01/M02 A2998 RMK AO2 SNB13 P0000 T10111017 RVRNO
Loading
Personal Weather Stations






























Interactive Weather Map New forecast layout! Learn more

10-Day Weather Forecast

Advertisements
Track Severe Weather on mobile